This is the latest recevied weather packets stored in our database for station/object SQ2CET-13. If no packets are shown the sender has not sent any weather packets the latest 10 day(s).
| Time | Temp. | Humidity | Pressure | Rain* | Wind** | Luminosity | Snow |
|---|---|---|---|---|---|---|---|
| 1777540860 | 11.67° C | 54% | 1030.2 hPa | 0 mm | - | 226 W/m² | - |
| 1777536657 | 10.56° C | 54% | 1030.5 hPa | 0 mm | - | 238 W/m² | - |
| 1777536081 | 10.56° C | 53% | 1030.6 hPa | 0 mm | - | 254 W/m² | - |
| 1777535420 | 9.44° C | 54% | 1030.6 hPa | 0 mm | - | 279 W/m² | - |
| 1777534269 | 9.44° C | 53% | 1030.6 hPa | 0 mm | - | 187 W/m² | - |
| 1777531260 | 8.33° C | 52% | 1031.1 hPa | 0 mm | - | 111 W/m² | - |
| 1777529468 | 7.22° C | 55% | 1031.1 hPa | 0 mm | - | 90 W/m² | - |
| 1777527037 | 6.11° C | 61% | 1031.4 hPa | 0 mm | - | 54 W/m² | - |
| 1777524668 | 6.11° C | 62% | 1031.3 hPa | 0 mm | - | 36 W/m² | - |
| 1777524028 | 5.56° C | 63% | 1031.3 hPa | 0 mm | - | 31 W/m² | - |
| 1777517436 | 3.89° C | 59% | 1031.5 hPa | 0 mm | - | 0 W/m² | - |
| 1777516889 | 3.33° C | 59% | 1031.6 hPa | 0 mm | - | 0 W/m² | - |
| 1777506044 | 1.11° C | 68% | 1032.5 hPa | 0 mm | - | 0 W/m² | - |
| 1777503030 | 1.11° C | 69% | 1032.6 hPa | 0 mm | - | 0 W/m² | - |
| 1777500061 | 1.11° C | 68% | 1032.5 hPa | 0 mm | - | 0 W/m² | - |
| 1777495861 | 2.22° C | 68% | 1032.3 hPa | 0 mm | - | 0 W/m² | - |
| 1777488629 | 4.44° C | 50% | 1032.3 hPa | 0 mm | - | 0 W/m² | - |
| 1777487476 | 5° C | 50% | 1032.2 hPa | 0 mm | - | 0 W/m² | - |
| 1777486837 | 5.56° C | 48% | 1032.2 hPa | 0 mm | - | 0 W/m² | - |
| 1777485045 | 7.22° C | 43% | 1032.2 hPa | 0 mm | - | 13 W/m² | - |
| 1777482698 | 8.33° C | 41% | 1032.1 hPa | 0 mm | - | 31 W/m² | - |
| 1777478430 | 10° C | 45% | 1032 hPa | 0 mm | - | 126 W/m² | - |
| 1777477855 | 10° C | 45% | 1032.1 hPa | 0 mm | - | 51 W/m² | - |
| 1777477278 | 10° C | 47% | 1031.8 hPa | 0 mm | - | 51 W/m² | - |
| 1777468863 | 11.11° C | 39% | 1031.7 hPa | 0 mm | - | 467 W/m² | - |
* Rain latest hour (hover to see other rain measurements)
** Current wind speed in m/s (hover to see current wind gust speed)